<?xml version="1.0" encoding="UTF-8" standalone="no" ?>
<gpx xmlns="http://www.topografix.com/GPX/1/1" xmlns:xsi="http://www.w3.org/2001/XMLSchema-instance" xsi:schemaLocation="http://www.topografix.com/GPX/1/1 http://www.topografix.com/GPX/1/1/gpx.xsd" version="1.1" creator="VisuGPX - https://www.visugpx.com">
  <metadata>
    <name>Lacs de balcere et balmette</name>
  </metadata>
  <trk>
    <name><![CDATA[Lacs de balcere et balmette]]></name>
    <trkseg>
      <trkpt lat="42.58754" lon="2.05184">
        <ele>1776</ele>
        <time>2019-08-18T10:30:19Z</time>
      </trkpt>
      <trkpt lat="42.58783" lon="2.05153">
        <ele>1781</ele>
        <time>2019-08-18T10:31:21Z</time>
      </trkpt>
      <trkpt lat="42.58752" lon="2.05042">
        <ele>1785</ele>
        <time>2019-08-18T10:32:54Z</time>
      </trkpt>
      <trkpt lat="42.58767" lon="2.04883">
        <ele>1795</ele>
        <time>2019-08-18T10:35:07Z</time>
      </trkpt>
      <trkpt lat="42.58744" lon="2.04785">
        <ele>1801</ele>
        <time>2019-08-18T10:36:32Z</time>
      </trkpt>
      <trkpt lat="42.58764" lon="2.04721">
        <ele>1805</ele>
        <time>2019-08-18T10:37:21Z</time>
      </trkpt>
      <trkpt lat="42.58754" lon="2.04663">
        <ele>1810</ele>
        <time>2019-08-18T10:38:43Z</time>
      </trkpt>
      <trkpt lat="42.58773" lon="2.04634">
        <ele>1815</ele>
        <time>2019-08-18T10:39:31Z</time>
      </trkpt>
      <trkpt lat="42.58764" lon="2.04506">
        <ele>1825</ele>
        <time>2019-08-18T10:41:38Z</time>
      </trkpt>
      <trkpt lat="42.58777" lon="2.04414">
        <ele>1840</ele>
        <time>2019-08-18T10:42:52Z</time>
      </trkpt>
      <trkpt lat="42.58815" lon="2.04323">
        <ele>1852</ele>
        <time>2019-08-18T10:44:57Z</time>
      </trkpt>
      <trkpt lat="42.58936" lon="2.04275">
        <ele>1852</ele>
        <time>2019-08-18T10:47:24Z</time>
      </trkpt>
      <trkpt lat="42.58976" lon="2.04227">
        <ele>1853</ele>
        <time>2019-08-18T10:48:32Z</time>
      </trkpt>
      <trkpt lat="42.59002" lon="2.04118">
        <ele>1853</ele>
        <time>2019-08-18T10:50:38Z</time>
      </trkpt>
      <trkpt lat="42.59102" lon="2.04073">
        <ele>1859</ele>
        <time>2019-08-18T10:53:42Z</time>
      </trkpt>
      <trkpt lat="42.59078" lon="2.04027">
        <ele>1865</ele>
        <time>2019-08-18T10:55:18Z</time>
      </trkpt>
      <trkpt lat="42.59043" lon="2.04043">
        <ele>1864</ele>
        <time>2019-08-18T10:56:18Z</time>
      </trkpt>
      <trkpt lat="42.59038" lon="2.03975">
        <ele>1884</ele>
        <time>2019-08-18T10:58:52Z</time>
      </trkpt>
      <trkpt lat="42.58977" lon="2.03982">
        <ele>1893</ele>
        <time>2019-08-18T11:00:40Z</time>
      </trkpt>
      <trkpt lat="42.58965" lon="2.03955">
        <ele>1899</ele>
        <time>2019-08-18T11:02:50Z</time>
      </trkpt>
      <trkpt lat="42.58977" lon="2.03939">
        <ele>1899</ele>
        <time>2019-08-18T11:03:44Z</time>
      </trkpt>
      <trkpt lat="42.58948" lon="2.03877">
        <ele>1918</ele>
        <time>2019-08-18T11:05:33Z</time>
      </trkpt>
      <trkpt lat="42.58917" lon="2.03864">
        <ele>1919</ele>
        <time>2019-08-18T11:06:21Z</time>
      </trkpt>
      <trkpt lat="42.58909" lon="2.03793">
        <ele>1928</ele>
        <time>2019-08-18T11:07:36Z</time>
      </trkpt>
      <trkpt lat="42.58935" lon="2.03651">
        <ele>1945</ele>
        <time>2019-08-18T11:10:15Z</time>
      </trkpt>
      <trkpt lat="42.58934" lon="2.0357">
        <ele>1952</ele>
        <time>2019-08-18T11:11:39Z</time>
      </trkpt>
      <trkpt lat="42.58904" lon="2.03522">
        <ele>1962</ele>
        <time>2019-08-18T11:13:53Z</time>
      </trkpt>
      <trkpt lat="42.58878" lon="2.03433">
        <ele>1969</ele>
        <time>2019-08-18T11:15:40Z</time>
      </trkpt>
      <trkpt lat="42.58882" lon="2.0329">
        <ele>1968</ele>
        <time>2019-08-18T11:17:33Z</time>
      </trkpt>
      <trkpt lat="42.58839" lon="2.03147">
        <ele>1974</ele>
        <time>2019-08-18T11:19:43Z</time>
      </trkpt>
      <trkpt lat="42.58844" lon="2.03033">
        <ele>1973</ele>
        <time>2019-08-18T11:21:16Z</time>
      </trkpt>
      <trkpt lat="42.58692" lon="2.0272">
        <ele>2003</ele>
        <time>2019-08-18T11:26:27Z</time>
      </trkpt>
      <trkpt lat="42.58691" lon="2.02671">
        <ele>2006</ele>
        <time>2019-08-18T11:27:09Z</time>
      </trkpt>
      <trkpt lat="42.58759" lon="2.02323">
        <ele>2075</ele>
        <time>2019-08-18T11:35:23Z</time>
      </trkpt>
      <trkpt lat="42.58736" lon="2.0222">
        <ele>2075</ele>
        <time>2019-08-18T11:37:28Z</time>
      </trkpt>
      <trkpt lat="42.58738" lon="2.02161">
        <ele>2071</ele>
        <time>2019-08-18T11:44:08Z</time>
      </trkpt>
      <trkpt lat="42.58761" lon="2.02127">
        <ele>2070</ele>
        <time>2019-08-18T11:45:14Z</time>
      </trkpt>
      <trkpt lat="42.58771" lon="2.02065">
        <ele>2079</ele>
        <time>2019-08-18T11:47:09Z</time>
      </trkpt>
      <trkpt lat="42.58894" lon="2.01906">
        <ele>2095</ele>
        <time>2019-08-18T11:53:14Z</time>
      </trkpt>
      <trkpt lat="42.58929" lon="2.01821">
        <ele>2098</ele>
        <time>2019-08-18T11:54:58Z</time>
      </trkpt>
      <trkpt lat="42.58938" lon="2.01769">
        <ele>2098</ele>
        <time>2019-08-18T11:55:42Z</time>
      </trkpt>
      <trkpt lat="42.58924" lon="2.01681">
        <ele>2105</ele>
        <time>2019-08-18T11:57:28Z</time>
      </trkpt>
      <trkpt lat="42.5897" lon="2.01584">
        <ele>2108</ele>
        <time>2019-08-18T12:00:02Z</time>
      </trkpt>
      <trkpt lat="42.58997" lon="2.01456">
        <ele>2119</ele>
        <time>2019-08-18T12:01:36Z</time>
      </trkpt>
      <trkpt lat="42.58995" lon="2.01195">
        <ele>2123</ele>
        <time>2019-08-18T12:06:45Z</time>
      </trkpt>
      <trkpt lat="42.59034" lon="2.01089">
        <ele>2118</ele>
        <time>2019-08-18T12:08:30Z</time>
      </trkpt>
      <trkpt lat="42.59092" lon="2.01057">
        <ele>2123</ele>
        <time>2019-08-18T12:09:54Z</time>
      </trkpt>
      <trkpt lat="42.59109" lon="2.01024">
        <ele>2124</ele>
        <time>2019-08-18T12:11:21Z</time>
      </trkpt>
      <trkpt lat="42.59145" lon="2.01081">
        <ele>2124</ele>
        <time>2019-08-18T12:15:49Z</time>
      </trkpt>
      <trkpt lat="42.59169" lon="2.01081">
        <ele>2125</ele>
        <time>2019-08-18T12:16:27Z</time>
      </trkpt>
      <trkpt lat="42.59204" lon="2.01041">
        <ele>2129</ele>
        <time>2019-08-18T12:17:09Z</time>
      </trkpt>
      <trkpt lat="42.59363" lon="2.00735">
        <ele>2156</ele>
        <time>2019-08-18T12:23:00Z</time>
      </trkpt>
      <trkpt lat="42.59472" lon="2.00657">
        <ele>2181</ele>
        <time>2019-08-18T12:27:55Z</time>
      </trkpt>
      <trkpt lat="42.59512" lon="2.00354">
        <ele>2196</ele>
        <time>2019-08-18T12:32:15Z</time>
      </trkpt>
      <trkpt lat="42.59569" lon="2.00129">
        <ele>2214</ele>
        <time>2019-08-18T12:35:42Z</time>
      </trkpt>
      <trkpt lat="42.59584" lon="2.00002">
        <ele>2221</ele>
        <time>2019-08-18T12:37:15Z</time>
      </trkpt>
      <trkpt lat="42.59616" lon="1.99926">
        <ele>2225</ele>
        <time>2019-08-18T12:39:22Z</time>
      </trkpt>
      <trkpt lat="42.59665" lon="1.99857">
        <ele>2226</ele>
        <time>2019-08-18T12:40:30Z</time>
      </trkpt>
      <trkpt lat="42.59701" lon="1.99838">
        <ele>2235</ele>
        <time>2019-08-18T12:41:30Z</time>
      </trkpt>
      <trkpt lat="42.59746" lon="1.99836">
        <ele>2241</ele>
        <time>2019-08-18T12:43:24Z</time>
      </trkpt>
      <trkpt lat="42.59783" lon="1.99775">
        <ele>2246</ele>
        <time>2019-08-18T12:44:30Z</time>
      </trkpt>
      <trkpt lat="42.59834" lon="1.9974">
        <ele>2247</ele>
        <time>2019-08-18T12:46:09Z</time>
      </trkpt>
      <trkpt lat="42.5996" lon="1.99745">
        <ele>2250</ele>
        <time>2019-08-18T12:48:54Z</time>
      </trkpt>
      <trkpt lat="42.59992" lon="1.99663">
        <ele>2246</ele>
        <time>2019-08-18T12:50:01Z</time>
      </trkpt>
      <trkpt lat="42.60046" lon="1.99586">
        <ele>2258</ele>
        <time>2019-08-18T12:51:58Z</time>
      </trkpt>
      <trkpt lat="42.60041" lon="1.99539">
        <ele>2265</ele>
        <time>2019-08-18T12:53:28Z</time>
      </trkpt>
      <trkpt lat="42.60059" lon="1.99533">
        <ele>2266</ele>
        <time>2019-08-18T12:54:26Z</time>
      </trkpt>
      <trkpt lat="42.6008" lon="1.99483">
        <ele>2279</ele>
        <time>2019-08-18T12:55:50Z</time>
      </trkpt>
      <trkpt lat="42.60099" lon="1.99483">
        <ele>2281</ele>
        <time>2019-08-18T12:56:30Z</time>
      </trkpt>
      <trkpt lat="42.60096" lon="1.99509">
        <ele>2275</ele>
        <time>2019-08-18T12:57:35Z</time>
      </trkpt>
      <trkpt lat="42.60102" lon="1.99483">
        <ele>2281</ele>
        <time>2019-08-18T13:06:06Z</time>
      </trkpt>
      <trkpt lat="42.60155" lon="1.99438">
        <ele>2286</ele>
        <time>2019-08-18T13:08:07Z</time>
      </trkpt>
      <trkpt lat="42.60163" lon="1.99381">
        <ele>2295</ele>
        <time>2019-08-18T13:09:00Z</time>
      </trkpt>
      <trkpt lat="42.60188" lon="1.99352">
        <ele>2297</ele>
        <time>2019-08-18T13:09:47Z</time>
      </trkpt>
      <trkpt lat="42.60197" lon="1.99246">
        <ele>2312</ele>
        <time>2019-08-18T13:11:18Z</time>
      </trkpt>
      <trkpt lat="42.60183" lon="1.99175">
        <ele>2316</ele>
        <time>2019-08-18T13:12:24Z</time>
      </trkpt>
      <trkpt lat="42.60198" lon="1.99081">
        <ele>2320</ele>
        <time>2019-08-18T13:13:44Z</time>
      </trkpt>
      <trkpt lat="42.6019" lon="1.99009">
        <ele>2319</ele>
        <time>2019-08-18T13:14:57Z</time>
      </trkpt>
      <trkpt lat="42.60121" lon="1.98968">
        <ele>2307</ele>
        <time>2019-08-18T13:34:24Z</time>
      </trkpt>
      <trkpt lat="42.60158" lon="1.98925">
        <ele>2304</ele>
        <time>2019-08-18T14:13:11Z</time>
      </trkpt>
      <trkpt lat="42.6018" lon="1.98852">
        <ele>2298</ele>
        <time>2019-08-18T14:14:13Z</time>
      </trkpt>
      <trkpt lat="42.60157" lon="1.98762">
        <ele>2284</ele>
        <time>2019-08-18T14:15:44Z</time>
      </trkpt>
      <trkpt lat="42.60136" lon="1.98735">
        <ele>2281</ele>
        <time>2019-08-18T14:16:29Z</time>
      </trkpt>
      <trkpt lat="42.60053" lon="1.98774">
        <ele>2281</ele>
        <time>2019-08-18T14:18:23Z</time>
      </trkpt>
      <trkpt lat="42.59968" lon="1.98769">
        <ele>2279</ele>
        <time>2019-08-18T14:19:54Z</time>
      </trkpt>
      <trkpt lat="42.59906" lon="1.98801">
        <ele>2275</ele>
        <time>2019-08-18T14:21:03Z</time>
      </trkpt>
      <trkpt lat="42.59855" lon="1.98865">
        <ele>2274</ele>
        <time>2019-08-18T14:22:15Z</time>
      </trkpt>
      <trkpt lat="42.5977" lon="1.98882">
        <ele>2268</ele>
        <time>2019-08-18T14:23:39Z</time>
      </trkpt>
      <trkpt lat="42.59717" lon="1.98869">
        <ele>2266</ele>
        <time>2019-08-18T14:24:35Z</time>
      </trkpt>
      <trkpt lat="42.59676" lon="1.98898">
        <ele>2265</ele>
        <time>2019-08-18T14:25:25Z</time>
      </trkpt>
      <trkpt lat="42.59645" lon="1.98886">
        <ele>2263</ele>
        <time>2019-08-18T14:26:04Z</time>
      </trkpt>
      <trkpt lat="42.59575" lon="1.98926">
        <ele>2260</ele>
        <time>2019-08-18T14:27:18Z</time>
      </trkpt>
      <trkpt lat="42.59545" lon="1.98981">
        <ele>2261</ele>
        <time>2019-08-18T14:28:06Z</time>
      </trkpt>
      <trkpt lat="42.59479" lon="1.98993">
        <ele>2261</ele>
        <time>2019-08-18T14:29:09Z</time>
      </trkpt>
      <trkpt lat="42.59409" lon="1.99031">
        <ele>2261</ele>
        <time>2019-08-18T14:30:21Z</time>
      </trkpt>
      <trkpt lat="42.59387" lon="1.99074">
        <ele>2260</ele>
        <time>2019-08-18T14:30:54Z</time>
      </trkpt>
      <trkpt lat="42.59343" lon="1.99108">
        <ele>2258</ele>
        <time>2019-08-18T14:31:45Z</time>
      </trkpt>
      <trkpt lat="42.59314" lon="1.9918">
        <ele>2255</ele>
        <time>2019-08-18T14:32:59Z</time>
      </trkpt>
      <trkpt lat="42.59291" lon="1.99203">
        <ele>2254</ele>
        <time>2019-08-18T14:33:26Z</time>
      </trkpt>
      <trkpt lat="42.59201" lon="1.99251">
        <ele>2259</ele>
        <time>2019-08-18T14:35:08Z</time>
      </trkpt>
      <trkpt lat="42.59111" lon="1.99252">
        <ele>2248</ele>
        <time>2019-08-18T14:38:46Z</time>
      </trkpt>
      <trkpt lat="42.59078" lon="1.99331">
        <ele>2243</ele>
        <time>2019-08-18T14:40:18Z</time>
      </trkpt>
      <trkpt lat="42.59062" lon="1.99329">
        <ele>2237</ele>
        <time>2019-08-18T14:48:33Z</time>
      </trkpt>
      <trkpt lat="42.59046" lon="1.99349">
        <ele>2229</ele>
        <time>2019-08-18T14:49:42Z</time>
      </trkpt>
      <trkpt lat="42.59024" lon="1.99337">
        <ele>2225</ele>
        <time>2019-08-18T14:50:27Z</time>
      </trkpt>
      <trkpt lat="42.58953" lon="1.99358">
        <ele>2205</ele>
        <time>2019-08-18T14:53:03Z</time>
      </trkpt>
      <trkpt lat="42.58922" lon="1.99391">
        <ele>2200</ele>
        <time>2019-08-18T14:54:18Z</time>
      </trkpt>
      <trkpt lat="42.58923" lon="1.99445">
        <ele>2194</ele>
        <time>2019-08-18T14:55:01Z</time>
      </trkpt>
      <trkpt lat="42.58973" lon="1.99549">
        <ele>2185</ele>
        <time>2019-08-18T14:56:41Z</time>
      </trkpt>
      <trkpt lat="42.58992" lon="1.9964">
        <ele>2181</ele>
        <time>2019-08-18T14:57:52Z</time>
      </trkpt>
      <trkpt lat="42.59002" lon="1.9976">
        <ele>2175</ele>
        <time>2019-08-18T14:59:36Z</time>
      </trkpt>
      <trkpt lat="42.58988" lon="1.99885">
        <ele>2174</ele>
        <time>2019-08-18T15:01:34Z</time>
      </trkpt>
      <trkpt lat="42.59013" lon="1.99957">
        <ele>2179</ele>
        <time>2019-08-18T15:03:07Z</time>
      </trkpt>
      <trkpt lat="42.59033" lon="2.00107">
        <ele>2174</ele>
        <time>2019-08-18T15:05:06Z</time>
      </trkpt>
      <trkpt lat="42.59028" lon="2.00257">
        <ele>2152</ele>
        <time>2019-08-18T15:07:25Z</time>
      </trkpt>
      <trkpt lat="42.59049" lon="2.0046">
        <ele>2133</ele>
        <time>2019-08-18T15:10:02Z</time>
      </trkpt>
      <trkpt lat="42.59072" lon="2.00552">
        <ele>2129</ele>
        <time>2019-08-18T15:11:21Z</time>
      </trkpt>
      <trkpt lat="42.59197" lon="2.00784">
        <ele>2129</ele>
        <time>2019-08-18T15:14:44Z</time>
      </trkpt>
      <trkpt lat="42.59201" lon="2.00852">
        <ele>2126</ele>
        <time>2019-08-18T15:15:29Z</time>
      </trkpt>
      <trkpt lat="42.59185" lon="2.00977">
        <ele>2126</ele>
        <time>2019-08-18T15:16:55Z</time>
      </trkpt>
      <trkpt lat="42.5913" lon="2.01045">
        <ele>2123</ele>
        <time>2019-08-18T15:18:04Z</time>
      </trkpt>
      <trkpt lat="42.59129" lon="2.01088">
        <ele>2123</ele>
        <time>2019-08-18T15:18:51Z</time>
      </trkpt>
      <trkpt lat="42.59076" lon="2.01136">
        <ele>2120</ele>
        <time>2019-08-18T15:19:57Z</time>
      </trkpt>
      <trkpt lat="42.59046" lon="2.01248">
        <ele>2121</ele>
        <time>2019-08-18T15:21:20Z</time>
      </trkpt>
      <trkpt lat="42.59067" lon="2.01296">
        <ele>2121</ele>
        <time>2019-08-18T15:22:17Z</time>
      </trkpt>
      <trkpt lat="42.59043" lon="2.01333">
        <ele>2122</ele>
        <time>2019-08-18T15:23:32Z</time>
      </trkpt>
      <trkpt lat="42.5899" lon="2.01357">
        <ele>2125</ele>
        <time>2019-08-18T15:32:58Z</time>
      </trkpt>
      <trkpt lat="42.58994" lon="2.01443">
        <ele>2120</ele>
        <time>2019-08-18T15:34:00Z</time>
      </trkpt>
      <trkpt lat="42.58968" lon="2.01581">
        <ele>2111</ele>
        <time>2019-08-18T15:35:52Z</time>
      </trkpt>
      <trkpt lat="42.58925" lon="2.01672">
        <ele>2106</ele>
        <time>2019-08-18T15:37:32Z</time>
      </trkpt>
      <trkpt lat="42.58937" lon="2.0171">
        <ele>2103</ele>
        <time>2019-08-18T15:38:51Z</time>
      </trkpt>
      <trkpt lat="42.5892" lon="2.01833">
        <ele>2101</ele>
        <time>2019-08-18T15:40:41Z</time>
      </trkpt>
      <trkpt lat="42.58862" lon="2.01948">
        <ele>2084</ele>
        <time>2019-08-18T15:43:01Z</time>
      </trkpt>
      <trkpt lat="42.58768" lon="2.0206">
        <ele>2080</ele>
        <time>2019-08-18T15:49:03Z</time>
      </trkpt>
      <trkpt lat="42.58758" lon="2.02131">
        <ele>2070</ele>
        <time>2019-08-18T15:50:42Z</time>
      </trkpt>
      <trkpt lat="42.58735" lon="2.02159">
        <ele>2073</ele>
        <time>2019-08-18T15:51:31Z</time>
      </trkpt>
      <trkpt lat="42.5876" lon="2.02331">
        <ele>2075</ele>
        <time>2019-08-18T15:55:09Z</time>
      </trkpt>
      <trkpt lat="42.58691" lon="2.02665">
        <ele>2012</ele>
        <time>2019-08-18T16:00:44Z</time>
      </trkpt>
      <trkpt lat="42.587" lon="2.02754">
        <ele>2000</ele>
        <time>2019-08-18T16:02:00Z</time>
      </trkpt>
      <trkpt lat="42.58842" lon="2.03015">
        <ele>1974</ele>
        <time>2019-08-18T16:06:06Z</time>
      </trkpt>
      <trkpt lat="42.58846" lon="2.03189">
        <ele>1973</ele>
        <time>2019-08-18T16:08:21Z</time>
      </trkpt>
      <trkpt lat="42.58882" lon="2.03289">
        <ele>1968</ele>
        <time>2019-08-18T16:09:59Z</time>
      </trkpt>
      <trkpt lat="42.58877" lon="2.03426">
        <ele>1969</ele>
        <time>2019-08-18T16:11:52Z</time>
      </trkpt>
      <trkpt lat="42.58932" lon="2.0359">
        <ele>1947</ele>
        <time>2019-08-18T16:18:45Z</time>
      </trkpt>
      <trkpt lat="42.58931" lon="2.03719">
        <ele>1939</ele>
        <time>2019-08-18T16:20:53Z</time>
      </trkpt>
      <trkpt lat="42.5891" lon="2.03785">
        <ele>1928</ele>
        <time>2019-08-18T16:21:59Z</time>
      </trkpt>
      <trkpt lat="42.58917" lon="2.03857">
        <ele>1921</ele>
        <time>2019-08-18T16:23:24Z</time>
      </trkpt>
      <trkpt lat="42.58956" lon="2.03891">
        <ele>1916</ele>
        <time>2019-08-18T16:24:24Z</time>
      </trkpt>
      <trkpt lat="42.58978" lon="2.03979">
        <ele>1894</ele>
        <time>2019-08-18T16:27:55Z</time>
      </trkpt>
      <trkpt lat="42.59031" lon="2.03972">
        <ele>1884</ele>
        <time>2019-08-18T16:31:09Z</time>
      </trkpt>
      <trkpt lat="42.59043" lon="2.03983">
        <ele>1882</ele>
        <time>2019-08-18T16:31:30Z</time>
      </trkpt>
      <trkpt lat="42.59042" lon="2.04039">
        <ele>1865</ele>
        <time>2019-08-18T16:33:09Z</time>
      </trkpt>
      <trkpt lat="42.59074" lon="2.04024">
        <ele>1865</ele>
        <time>2019-08-18T16:33:51Z</time>
      </trkpt>
      <trkpt lat="42.59103" lon="2.04073">
        <ele>1859</ele>
        <time>2019-08-18T16:35:24Z</time>
      </trkpt>
      <trkpt lat="42.59001" lon="2.04125">
        <ele>1852</ele>
        <time>2019-08-18T16:38:23Z</time>
      </trkpt>
      <trkpt lat="42.58981" lon="2.04161">
        <ele>1859</ele>
        <time>2019-08-18T16:39:01Z</time>
      </trkpt>
      <trkpt lat="42.58976" lon="2.04232">
        <ele>1853</ele>
        <time>2019-08-18T16:40:19Z</time>
      </trkpt>
      <trkpt lat="42.58918" lon="2.04295">
        <ele>1851</ele>
        <time>2019-08-18T16:41:42Z</time>
      </trkpt>
      <trkpt lat="42.58812" lon="2.04333">
        <ele>1851</ele>
        <time>2019-08-18T16:43:43Z</time>
      </trkpt>
      <trkpt lat="42.58779" lon="2.04421">
        <ele>1835</ele>
        <time>2019-08-18T16:45:26Z</time>
      </trkpt>
      <trkpt lat="42.58774" lon="2.04637">
        <ele>1815</ele>
        <time>2019-08-18T16:48:29Z</time>
      </trkpt>
      <trkpt lat="42.58757" lon="2.04669">
        <ele>1808</ele>
        <time>2019-08-18T16:49:22Z</time>
      </trkpt>
      <trkpt lat="42.5877" lon="2.04719">
        <ele>1805</ele>
        <time>2019-08-18T16:50:22Z</time>
      </trkpt>
      <trkpt lat="42.5875" lon="2.04796">
        <ele>1798</ele>
        <time>2019-08-18T16:51:45Z</time>
      </trkpt>
      <trkpt lat="42.58771" lon="2.04896">
        <ele>1795</ele>
        <time>2019-08-18T16:53:07Z</time>
      </trkpt>
      <trkpt lat="42.58754" lon="2.0503">
        <ele>1786</ele>
        <time>2019-08-18T16:54:46Z</time>
      </trkpt>
      <trkpt lat="42.58799" lon="2.0517">
        <ele>1780</ele>
        <time>2019-08-18T16:56:38Z</time>
      </trkpt>
      <trkpt lat="42.58858" lon="2.05214">
        <ele>1786</ele>
        <time>2019-08-18T16:57:41Z</time>
      </trkpt>
      <trkpt lat="42.58886" lon="2.05204">
        <ele>1787</ele>
        <time>2019-08-18T17:00:06Z</time>
      </trkpt>
    </trkseg>
  </trk>
</gpx>